ALK121 VCBI-VOMM
Flight info
| Callsign | ALK121 |
|---|---|
| Flight time | 1h 21m |
| Altitude | 39000 |
| Route | ATETA2D ATETA DCT SAGOR DCT AKMIL DCT ARDAB |
| Aircraft | A333/H-SDE2E3FGHIRWXY/L |
Departure
| Time | 2026-04-27 15:54 |
|---|---|
| Airport | Bandaranaike International Colombo Airport (VCBI) |
Arrival
| Time | 2026-04-27 17:16 |
|---|---|
| Airport | Chennai International Airport (VOMM) |
| Time | Latitude | Longitude | Altitude | Speed | Heading |
|---|---|---|---|---|---|
| 2026-04-27 15:33 | 7.17188 | 79.88202 | 37 ft | 0 kts | 217° |
| 2026-04-27 15:46 | 7.17200 | 79.88211 | 36 ft | 4 kts | 231° |
| 2026-04-27 15:46 | 7.17211 | 79.88234 | 34 ft | 4 kts | 268° |
| 2026-04-27 15:46 | 7.17207 | 79.88260 | 34 ft | 4 kts | 294° |
| 2026-04-27 15:47 | 7.17196 | 79.88279 | 34 ft | 1 kts | 306° |
| 2026-04-27 15:49 | 7.17202 | 79.88272 | 34 ft | 3 kts | 308° |
| 2026-04-27 15:49 | 7.17225 | 79.88246 | 34 ft | 8 kts | 314° |
| 2026-04-27 15:49 | 7.17276 | 79.88196 | 37 ft | 12 kts | 317° |
| 2026-04-27 15:50 | 7.17349 | 79.88131 | 37 ft | 15 kts | 314° |
| 2026-04-27 15:50 | 7.17423 | 79.88050 | 37 ft | 15 kts | 311° |
| 2026-04-27 15:50 | 7.17487 | 79.87969 | 39 ft | 15 kts | 305° |
| 2026-04-27 15:50 | 7.17510 | 79.87895 | 39 ft | 4 kts | 246° |
| 2026-04-27 15:51 | 7.17487 | 79.87881 | 39 ft | 7 kts | 209° |
| 2026-04-27 15:51 | 7.17417 | 79.87841 | 37 ft | 17 kts | 209° |
| 2026-04-27 15:51 | 7.17299 | 79.87766 | 37 ft | 23 kts | 217° |
| 2026-04-27 15:51 | 7.17157 | 79.87657 | 37 ft | 27 kts | 217° |
| 2026-04-27 15:52 | 7.17003 | 79.87539 | 37 ft | 28 kts | 216° |
| 2026-04-27 15:52 | 7.16938 | 79.87497 | 38 ft | 1 kts | 257° |
| 2026-04-27 15:52 | 7.16941 | 79.87493 | 38 ft | 1 kts | 288° |
| 2026-04-27 15:52 | 7.16946 | 79.87489 | 37 ft | 1 kts | 316° |
| 2026-04-27 15:53 | 7.16953 | 79.87490 | 37 ft | 1 kts | 360° |
| 2026-04-27 15:53 | 7.16961 | 79.87499 | 38 ft | 4 kts | 40° |
| 2026-04-27 15:53 | 7.17000 | 79.87535 | 38 ft | 11 kts | 47° |
| 2026-04-27 15:53 | 7.17038 | 79.87567 | 37 ft | 0 kts | 39° |
| 2026-04-27 15:54 | 7.17187 | 79.87681 | 37 ft | 72 kts | 37° |
| 2026-04-27 15:54 | 7.17834 | 79.88170 | 41 ft | 161 kts | 38° |
| 2026-04-27 15:54 | 7.18928 | 79.89017 | 253 ft | 230 kts | 40° |
| 2026-04-27 15:54 | 7.20288 | 79.90118 | 1005 ft | 262 kts | 37° |
| 2026-04-27 15:55 | 7.21982 | 79.90855 | 2117 ft | 269 kts | 7° |
| 2026-04-27 15:55 | 7.23808 | 79.90627 | 2715 ft | 267 kts | 338° |
| 2026-04-27 15:55 | 7.25505 | 79.89830 | 2959 ft | 270 kts | 333° |
| 2026-04-27 15:55 | 7.27208 | 79.89017 | 3000 ft | 271 kts | 335° |
| 2026-04-27 15:56 | 7.29006 | 79.88489 | 3002 ft | 271 kts | 356° |
| 2026-04-27 15:56 | 7.30896 | 79.88477 | 3006 ft | 272 kts | 0° |
| 2026-04-27 15:56 | 7.32796 | 79.88515 | 3008 ft | 273 kts | 1° |
| 2026-04-27 15:56 | 7.34696 | 79.88561 | 3009 ft | 273 kts | 1° |
| 2026-04-27 15:57 | 7.36596 | 79.88598 | 3016 ft | 273 kts | 1° |
| 2026-04-27 15:57 | 7.38493 | 79.88626 | 3014 ft | 273 kts | 0° |
| 2026-04-27 15:57 | 7.40394 | 79.88638 | 3156 ft | 274 kts | 0° |
| 2026-04-27 15:57 | 7.42313 | 79.88644 | 3775 ft | 278 kts | 0° |
| 2026-04-27 15:58 | 7.44241 | 79.88648 | 4801 ft | 276 kts | 1° |
| 2026-04-27 15:58 | 7.46159 | 79.88651 | 5810 ft | 276 kts | 1° |
| 2026-04-27 15:58 | 7.48082 | 79.88654 | 6523 ft | 278 kts | 1° |
| 2026-04-27 15:58 | 7.50030 | 79.88658 | 6904 ft | 281 kts | 1° |
| 2026-04-27 15:59 | 7.51992 | 79.88661 | 7016 ft | 283 kts | 1° |
| 2026-04-27 15:59 | 7.53960 | 79.88665 | 7033 ft | 284 kts | 1° |
| 2026-04-27 15:59 | 7.55937 | 79.88668 | 7033 ft | 284 kts | 1° |
| 2026-04-27 15:59 | 7.57911 | 79.88671 | 7033 ft | 284 kts | 1° |
| 2026-04-27 16:00 | 7.59888 | 79.88674 | 7035 ft | 284 kts | 1° |
| 2026-04-27 16:00 | 7.61863 | 79.88677 | 7038 ft | 284 kts | 1° |
| 2026-04-27 16:00 | 7.63835 | 79.88680 | 7039 ft | 284 kts | 1° |
| 2026-04-27 16:00 | 7.65786 | 79.88683 | 7038 ft | 284 kts | 1° |
| 2026-04-27 16:01 | 7.67761 | 79.88676 | 7034 ft | 284 kts | 359° |
| 2026-04-27 16:01 | 7.69726 | 79.88497 | 7080 ft | 284 kts | 354° |
| 2026-04-27 16:01 | 7.71691 | 79.88221 | 7515 ft | 287 kts | 353° |
| 2026-04-27 16:01 | 7.73676 | 79.87931 | 8394 ft | 289 kts | 353° |
| 2026-04-27 16:02 | 7.75672 | 79.87639 | 9411 ft | 290 kts | 353° |
| 2026-04-27 16:02 | 7.77679 | 79.87347 | 10300 ft | 295 kts | 353° |
| 2026-04-27 16:02 | 7.79782 | 79.87044 | 10743 ft | 317 kts | 353° |
| 2026-04-27 16:02 | 7.82027 | 79.86721 | 11201 ft | 333 kts | 353° |
| 2026-04-27 16:03 | 7.84356 | 79.86384 | 11913 ft | 341 kts | 353° |
| 2026-04-27 16:03 | 7.86718 | 79.86042 | 12704 ft | 346 kts | 354° |
| 2026-04-27 16:03 | 7.89112 | 79.85695 | 13528 ft | 350 kts | 354° |
| 2026-04-27 16:03 | 7.91540 | 79.85344 | 14244 ft | 355 kts | 354° |
| 2026-04-27 16:04 | 7.94000 | 79.84988 | 14930 ft | 360 kts | 354° |
| 2026-04-27 16:04 | 7.96499 | 79.84627 | 15592 ft | 366 kts | 354° |
| 2026-04-27 16:04 | 7.99035 | 79.84261 | 16269 ft | 371 kts | 354° |
| 2026-04-27 16:04 | 8.01605 | 79.83889 | 16943 ft | 376 kts | 354° |
| 2026-04-27 16:05 | 8.04212 | 79.83512 | 17609 ft | 381 kts | 354° |
| 2026-04-27 16:05 | 8.06846 | 79.83131 | 18239 ft | 386 kts | 354° |
| 2026-04-27 16:05 | 8.09518 | 79.82745 | 18818 ft | 390 kts | 354° |
| 2026-04-27 16:05 | 8.12212 | 79.82355 | 19412 ft | 393 kts | 354° |
| 2026-04-27 16:06 | 8.14926 | 79.81962 | 20026 ft | 395 kts | 354° |
| 2026-04-27 16:06 | 8.17661 | 79.81566 | 20620 ft | 398 kts | 354° |
| 2026-04-27 16:06 | 8.20418 | 79.81167 | 21211 ft | 402 kts | 354° |
| 2026-04-27 16:06 | 8.23196 | 79.80765 | 21785 ft | 405 kts | 354° |
| 2026-04-27 16:07 | 8.25990 | 79.80360 | 22369 ft | 408 kts | 354° |
| 2026-04-27 16:07 | 8.28814 | 79.79951 | 22927 ft | 412 kts | 354° |
| 2026-04-27 16:07 | 8.31661 | 79.79539 | 23478 ft | 415 kts | 354° |
| 2026-04-27 16:07 | 8.34531 | 79.79123 | 23940 ft | 418 kts | 354° |
| 2026-04-27 16:08 | 8.37420 | 79.78704 | 24408 ft | 421 kts | 354° |
| 2026-04-27 16:08 | 8.40325 | 79.78283 | 24909 ft | 423 kts | 353° |
| 2026-04-27 16:08 | 8.43244 | 79.77860 | 25383 ft | 425 kts | 353° |
| 2026-04-27 16:08 | 8.46171 | 79.77436 | 25860 ft | 427 kts | 353° |
| 2026-04-27 16:09 | 8.49117 | 79.77009 | 26307 ft | 429 kts | 353° |
| 2026-04-27 16:09 | 8.55057 | 79.76143 | 27222 ft | 433 kts | 353° |
| 2026-04-27 16:09 | 8.58012 | 79.75709 | 27656 ft | 436 kts | 353° |
| 2026-04-27 16:10 | 8.64061 | 79.74822 | 28643 ft | 438 kts | 354° |
| 2026-04-27 16:10 | 8.70086 | 79.73938 | 29493 ft | 443 kts | 354° |
| 2026-04-27 16:11 | 8.73175 | 79.73485 | 29909 ft | 445 kts | 354° |
| 2026-04-27 16:11 | 8.79300 | 79.72586 | 30552 ft | 451 kts | 353° |
| 2026-04-27 16:12 | 8.85557 | 79.71668 | 31152 ft | 457 kts | 353° |
| 2026-04-27 16:12 | 8.88710 | 79.71205 | 31443 ft | 460 kts | 353° |
| 2026-04-27 16:12 | 8.95087 | 79.70268 | 32143 ft | 464 kts | 353° |
| 2026-04-27 16:13 | 8.98279 | 79.69799 | 32652 ft | 462 kts | 353° |
| 2026-04-27 16:13 | 9.04610 | 79.68868 | 33594 ft | 459 kts | 353° |
| 2026-04-27 16:13 | 9.07774 | 79.68403 | 33994 ft | 459 kts | 353° |
| 2026-04-27 16:14 | 9.14096 | 79.67473 | 34685 ft | 460 kts | 353° |
| 2026-04-27 16:14 | 9.20443 | 79.66540 | 35312 ft | 461 kts | 353° |
| 2026-04-27 16:15 | 9.26816 | 79.65703 | 35956 ft | 462 kts | 359° |
| 2026-04-27 16:15 | 9.33148 | 79.66436 | 36511 ft | 460 kts | 19° |
| 2026-04-27 16:16 | 9.38900 | 79.69234 | 37052 ft | 460 kts | 32° |
| 2026-04-27 16:16 | 9.44331 | 79.72654 | 37671 ft | 460 kts | 34° |
| 2026-04-27 16:17 | 9.49717 | 79.76148 | 38286 ft | 460 kts | 34° |
| 2026-04-27 16:17 | 9.55125 | 79.79624 | 38792 ft | 461 kts | 34° |
| 2026-04-27 16:18 | 9.66076 | 79.86586 | 38843 ft | 466 kts | 33° |
| 2026-04-27 16:19 | 9.71562 | 79.90068 | 38841 ft | 466 kts | 33° |
| 2026-04-27 16:20 | 9.82588 | 79.97078 | 38840 ft | 468 kts | 33° |
| 2026-04-27 16:21 | 9.90861 | 80.02341 | 38842 ft | 468 kts | 33° |
| 2026-04-27 16:21 | 9.99288 | 80.07239 | 38837 ft | 469 kts | 20° |
| 2026-04-27 16:22 | 10.02455 | 80.08022 | 38837 ft | 469 kts | 7° |
| 2026-04-27 16:22 | 10.12256 | 80.08513 | 38837 ft | 471 kts | 0° |
| 2026-04-27 16:23 | 10.22157 | 80.08590 | 38837 ft | 472 kts | 0° |
| 2026-04-27 16:24 | 10.28723 | 80.08680 | 38835 ft | 472 kts | 1° |
| 2026-04-27 16:25 | 10.41828 | 80.08914 | 38829 ft | 472 kts | 1° |
| 2026-04-27 16:26 | 10.54942 | 80.09152 | 38834 ft | 471 kts | 0° |
| 2026-04-27 16:27 | 10.68037 | 80.09387 | 38834 ft | 471 kts | 0° |
| 2026-04-27 16:28 | 10.84412 | 80.09681 | 38819 ft | 468 kts | 0° |
| 2026-04-27 16:28 | 10.90821 | 80.09798 | 38158 ft | 461 kts | 0° |
| 2026-04-27 16:29 | 11.00458 | 80.09971 | 36557 ft | 461 kts | 360° |
| 2026-04-27 16:30 | 11.06866 | 80.10087 | 35490 ft | 461 kts | 0° |
| 2026-04-27 16:30 | 11.13288 | 80.10202 | 34262 ft | 463 kts | 360° |
| 2026-04-27 16:31 | 11.23037 | 80.10377 | 31982 ft | 470 kts | 360° |
| 2026-04-27 16:31 | 11.29568 | 80.10495 | 30796 ft | 462 kts | 0° |
| 2026-04-27 16:32 | 11.35852 | 80.10609 | 30361 ft | 455 kts | 1° |
| 2026-04-27 16:32 | 11.39012 | 80.10666 | 30128 ft | 453 kts | 1° |
| 2026-04-27 16:33 | 11.45262 | 80.10778 | 29638 ft | 447 kts | 1° |
| 2026-04-27 16:33 | 11.48371 | 80.10834 | 29370 ft | 446 kts | 1° |
| 2026-04-27 16:33 | 11.51467 | 80.10890 | 29102 ft | 443 kts | 1° |
| 2026-04-27 16:33 | 11.54519 | 80.10945 | 28703 ft | 435 kts | 1° |
| 2026-04-27 16:34 | 11.57536 | 80.10999 | 28178 ft | 432 kts | 2° |
| 2026-04-27 16:34 | 11.59517 | 80.11035 | 27831 ft | 430 kts | 2° |
| 2026-04-27 16:34 | 11.63495 | 80.11107 | 27143 ft | 425 kts | 2° |
| 2026-04-27 16:34 | 11.66444 | 80.11160 | 26631 ft | 422 kts | 2° |
| 2026-04-27 16:35 | 11.69375 | 80.11213 | 26095 ft | 420 kts | 3° |
| 2026-04-27 16:35 | 11.71310 | 80.11248 | 25745 ft | 419 kts | 2° |
| 2026-04-27 16:35 | 11.77108 | 80.11354 | 24717 ft | 415 kts | 3° |
| 2026-04-27 16:36 | 11.79993 | 80.11406 | 24205 ft | 414 kts | 3° |
| 2026-04-27 16:36 | 11.82868 | 80.11459 | 23689 ft | 413 kts | 3° |
| 2026-04-27 16:36 | 11.85720 | 80.11647 | 23108 ft | 408 kts | 14° |
| 2026-04-27 16:36 | 11.88407 | 80.12526 | 22431 ft | 405 kts | 24° |
| 2026-04-27 16:37 | 11.90997 | 80.13617 | 21909 ft | 401 kts | 25° |
| 2026-04-27 16:37 | 11.93548 | 80.14723 | 21412 ft | 396 kts | 25° |
| 2026-04-27 16:37 | 11.96070 | 80.15816 | 20916 ft | 392 kts | 25° |
| 2026-04-27 16:37 | 11.98572 | 80.16896 | 20419 ft | 389 kts | 25° |
| 2026-04-27 16:38 | 12.01053 | 80.17964 | 19937 ft | 385 kts | 25° |
| 2026-04-27 16:38 | 12.03514 | 80.19021 | 19448 ft | 382 kts | 25° |
| 2026-04-27 16:38 | 12.05956 | 80.20070 | 18960 ft | 380 kts | 25° |
| 2026-04-27 16:38 | 12.08387 | 80.21114 | 18475 ft | 378 kts | 25° |
| 2026-04-27 16:39 | 12.10805 | 80.22152 | 17988 ft | 376 kts | 25° |
| 2026-04-27 16:39 | 12.13208 | 80.23184 | 17452 ft | 373 kts | 25° |
| 2026-04-27 16:39 | 12.15586 | 80.24205 | 16965 ft | 369 kts | 25° |
| 2026-04-27 16:39 | 12.17935 | 80.25213 | 16485 ft | 365 kts | 25° |
| 2026-04-27 16:40 | 12.20269 | 80.26216 | 16009 ft | 362 kts | 25° |
| 2026-04-27 16:40 | 12.22579 | 80.27208 | 15611 ft | 356 kts | 25° |
| 2026-04-27 16:40 | 12.24765 | 80.28146 | 15527 ft | 333 kts | 24° |
| 2026-04-27 16:40 | 12.26851 | 80.29041 | 15418 ft | 315 kts | 24° |
| 2026-04-27 16:41 | 12.28883 | 80.29915 | 15279 ft | 318 kts | 24° |
| 2026-04-27 16:41 | 12.30896 | 80.30782 | 15058 ft | 315 kts | 24° |
| 2026-04-27 16:41 | 12.32890 | 80.31638 | 14755 ft | 307 kts | 23° |
| 2026-04-27 16:41 | 12.34932 | 80.32289 | 14341 ft | 307 kts | 14° |
| 2026-04-27 16:42 | 12.37015 | 80.32721 | 13977 ft | 306 kts | 12° |
| 2026-04-27 16:42 | 12.39098 | 80.33114 | 13591 ft | 305 kts | 11° |
| 2026-04-27 16:42 | 12.41165 | 80.33501 | 13266 ft | 300 kts | 11° |
| 2026-04-27 16:42 | 12.43203 | 80.33883 | 12996 ft | 293 kts | 12° |
| 2026-04-27 16:43 | 12.45172 | 80.34255 | 12849 ft | 282 kts | 12° |
| 2026-04-27 16:43 | 12.47055 | 80.34611 | 12576 ft | 270 kts | 12° |
| 2026-04-27 16:43 | 12.48882 | 80.34958 | 12158 ft | 265 kts | 12° |
| 2026-04-27 16:43 | 12.50684 | 80.35301 | 11908 ft | 261 kts | 12° |
| 2026-04-27 16:44 | 12.52457 | 80.35639 | 11611 ft | 259 kts | 12° |
| 2026-04-27 16:44 | 12.54226 | 80.35976 | 11271 ft | 259 kts | 12° |
| 2026-04-27 16:44 | 12.55987 | 80.36312 | 11005 ft | 256 kts | 12° |
| 2026-04-27 16:44 | 12.57732 | 80.36644 | 10756 ft | 253 kts | 13° |
| 2026-04-27 16:45 | 12.59452 | 80.36972 | 10463 ft | 252 kts | 13° |
| 2026-04-27 16:45 | 12.61175 | 80.37301 | 10126 ft | 252 kts | 12° |
| 2026-04-27 16:45 | 12.62900 | 80.37630 | 9842 ft | 251 kts | 12° |
| 2026-04-27 16:45 | 12.64612 | 80.37956 | 9570 ft | 249 kts | 13° |
| 2026-04-27 16:46 | 12.66312 | 80.38280 | 9269 ft | 248 kts | 12° |
| 2026-04-27 16:46 | 12.68006 | 80.38604 | 8950 ft | 247 kts | 12° |
| 2026-04-27 16:46 | 12.69687 | 80.38924 | 8638 ft | 246 kts | 13° |
| 2026-04-27 16:46 | 12.71392 | 80.39250 | 8170 ft | 252 kts | 13° |
| 2026-04-27 16:47 | 12.73148 | 80.39587 | 7603 ft | 261 kts | 12° |
| 2026-04-27 16:47 | 12.74940 | 80.39929 | 7058 ft | 261 kts | 12° |
| 2026-04-27 16:47 | 12.76704 | 80.40264 | 6599 ft | 255 kts | 13° |
| 2026-04-27 16:47 | 12.78426 | 80.40592 | 6132 ft | 249 kts | 13° |
| 2026-04-27 16:48 | 12.80113 | 80.40913 | 5688 ft | 243 kts | 12° |
| 2026-04-27 16:48 | 12.81739 | 80.41223 | 5439 ft | 233 kts | 12° |
| 2026-04-27 16:48 | 12.83313 | 80.41524 | 5210 ft | 229 kts | 12° |
| 2026-04-27 16:49 | 12.86427 | 80.42119 | 4783 ft | 226 kts | 12° |
| 2026-04-27 16:49 | 12.87977 | 80.42416 | 4663 ft | 226 kts | 12° |
| 2026-04-27 16:49 | 12.89508 | 80.42709 | 4556 ft | 227 kts | 11° |
| 2026-04-27 16:49 | 12.91056 | 80.43005 | 4422 ft | 227 kts | 12° |
| 2026-04-27 16:50 | 12.92611 | 80.43302 | 4313 ft | 227 kts | 12° |
| 2026-04-27 16:50 | 12.94167 | 80.43600 | 4228 ft | 228 kts | 11° |
| 2026-04-27 16:50 | 12.95725 | 80.43898 | 4113 ft | 229 kts | 11° |
| 2026-04-27 16:50 | 12.97289 | 80.44190 | 3959 ft | 228 kts | 9° |
| 2026-04-27 16:51 | 12.98862 | 80.44136 | 3862 ft | 225 kts | 343° |
| 2026-04-27 16:51 | 13.00194 | 80.43405 | 3705 ft | 214 kts | 323° |
| 2026-04-27 16:51 | 13.01381 | 80.42467 | 3387 ft | 214 kts | 319° |
| 2026-04-27 16:51 | 13.02520 | 80.41516 | 3118 ft | 212 kts | 318° |
| 2026-04-27 16:52 | 13.03677 | 80.40560 | 2803 ft | 212 kts | 319° |
| 2026-04-27 16:52 | 13.04817 | 80.39626 | 2538 ft | 209 kts | 319° |
| 2026-04-27 16:52 | 13.05843 | 80.38592 | 2235 ft | 204 kts | 300° |
| 2026-04-27 16:52 | 13.06334 | 80.37291 | 2116 ft | 188 kts | 270° |
| 2026-04-27 16:53 | 13.06202 | 80.36041 | 2015 ft | 168 kts | 248° |
| 2026-04-27 16:53 | 13.05838 | 80.34960 | 1889 ft | 154 kts | 243° |
| 2026-04-27 16:53 | 13.05457 | 80.33965 | 1819 ft | 148 kts | 240° |
| 2026-04-27 16:53 | 13.05088 | 80.33009 | 1804 ft | 140 kts | 240° |
| 2026-04-27 16:54 | 13.04748 | 80.32113 | 1818 ft | 131 kts | 239° |
| 2026-04-27 16:54 | 13.04414 | 80.31242 | 1823 ft | 132 kts | 239° |
| 2026-04-27 16:54 | 13.04077 | 80.30362 | 1810 ft | 133 kts | 240° |
| 2026-04-27 16:54 | 13.03742 | 80.29480 | 1813 ft | 133 kts | 242° |
| 2026-04-27 16:55 | 13.03408 | 80.28596 | 1806 ft | 133 kts | 242° |
| 2026-04-27 16:55 | 13.03076 | 80.27712 | 1807 ft | 133 kts | 240° |
| 2026-04-27 16:55 | 13.02742 | 80.26826 | 1800 ft | 133 kts | 240° |
| 2026-04-27 16:55 | 13.02410 | 80.25943 | 1793 ft | 131 kts | 239° |
| 2026-04-27 16:56 | 13.02144 | 80.25058 | 1723 ft | 132 kts | 253° |
| 2026-04-27 16:56 | 13.01953 | 80.24148 | 1586 ft | 129 kts | 247° |
| 2026-04-27 16:56 | 13.01679 | 80.23282 | 1487 ft | 127 kts | 241° |
| 2026-04-27 16:56 | 13.01299 | 80.22480 | 1342 ft | 122 kts | 230° |
| 2026-04-27 16:57 | 13.00949 | 80.21700 | 1345 ft | 124 kts | 237° |
| 2026-04-27 16:57 | 13.00623 | 80.20833 | 1075 ft | 133 kts | 240° |
| 2026-04-27 16:57 | 13.00250 | 80.20004 | 934 ft | 132 kts | 242° |
| 2026-04-27 16:57 | 12.99836 | 80.18906 | 1076 ft | 197 kts | 242° |
| 2026-04-27 16:58 | 12.99284 | 80.17453 | 1799 ft | 215 kts | 244° |
| 2026-04-27 16:58 | 12.98793 | 80.16073 | 2884 ft | 202 kts | 246° |
| 2026-04-27 16:58 | 12.98306 | 80.14705 | 3549 ft | 209 kts | 247° |
| 2026-04-27 16:58 | 12.97803 | 80.13288 | 3910 ft | 213 kts | 248° |
| 2026-04-27 16:59 | 12.97298 | 80.11851 | 3995 ft | 215 kts | 248° |
| 2026-04-27 16:59 | 12.96793 | 80.10404 | 4007 ft | 216 kts | 248° |
| 2026-04-27 16:59 | 12.96287 | 80.08953 | 4002 ft | 216 kts | 248° |
| 2026-04-27 16:59 | 12.95781 | 80.07502 | 4007 ft | 216 kts | 248° |
| 2026-04-27 17:00 | 12.95637 | 80.05015 | 3998 ft | 211 kts | 285° |
| 2026-04-27 17:00 | 12.96382 | 80.03210 | 3991 ft | 204 kts | 304° |
| 2026-04-27 17:00 | 12.97493 | 80.02339 | 3999 ft | 204 kts | 341° |
| 2026-04-27 17:01 | 12.98884 | 80.02303 | 4000 ft | 203 kts | 19° |
| 2026-04-27 17:01 | 13.00018 | 80.03109 | 4004 ft | 199 kts | 57° |
| 2026-04-27 17:01 | 13.00525 | 80.04407 | 4010 ft | 197 kts | 77° |
| 2026-04-27 17:01 | 13.00731 | 80.05040 | 4005 ft | 199 kts | 68° |
| 2026-04-27 17:02 | 13.00822 | 80.05246 | 4008 ft | 200 kts | 66° |
| 2026-04-27 17:02 | 13.01484 | 80.06502 | 4003 ft | 200 kts | 66° |
| 2026-04-27 17:02 | 13.02069 | 80.07799 | 4008 ft | 201 kts | 69° |
| 2026-04-27 17:02 | 13.02585 | 80.09126 | 4004 ft | 200 kts | 71° |
| 2026-04-27 17:03 | 13.03074 | 80.10459 | 4016 ft | 199 kts | 72° |
| 2026-04-27 17:03 | 13.03555 | 80.11779 | 4023 ft | 197 kts | 72° |
| 2026-04-27 17:03 | 13.04037 | 80.13095 | 4016 ft | 198 kts | 72° |
| 2026-04-27 17:03 | 13.04548 | 80.14505 | 4025 ft | 222 kts | 71° |
| 2026-04-27 17:04 | 13.05088 | 80.16020 | 4008 ft | 229 kts | 72° |
| 2026-04-27 17:04 | 13.05640 | 80.17560 | 4005 ft | 231 kts | 72° |
| 2026-04-27 17:04 | 13.06218 | 80.19110 | 4055 ft | 233 kts | 71° |
| 2026-04-27 17:04 | 13.06789 | 80.20662 | 3920 ft | 231 kts | 71° |
| 2026-04-27 17:05 | 13.07354 | 80.22204 | 3518 ft | 231 kts | 72° |
| 2026-04-27 17:05 | 13.07935 | 80.23731 | 3179 ft | 227 kts | 72° |
| 2026-04-27 17:05 | 13.08514 | 80.25222 | 2932 ft | 221 kts | 72° |
| 2026-04-27 17:05 | 13.08893 | 80.26181 | 2767 ft | 216 kts | 72° |
| 2026-04-27 17:06 | 13.09651 | 80.28057 | 2434 ft | 209 kts | 72° |
| 2026-04-27 17:06 | 13.10195 | 80.29419 | 2197 ft | 203 kts | 73° |
| 2026-04-27 17:06 | 13.10729 | 80.30747 | 1969 ft | 200 kts | 73° |
| 2026-04-27 17:06 | 13.11265 | 80.32059 | 1813 ft | 200 kts | 73° |
| 2026-04-27 17:07 | 13.11806 | 80.33367 | 1796 ft | 199 kts | 73° |
| 2026-04-27 17:07 | 13.12348 | 80.34667 | 1796 ft | 197 kts | 73° |
| 2026-04-27 17:07 | 13.12893 | 80.35960 | 1791 ft | 197 kts | 73° |
| 2026-04-27 17:07 | 13.13440 | 80.37246 | 1790 ft | 196 kts | 72° |
| 2026-04-27 17:08 | 13.13872 | 80.38558 | 1786 ft | 189 kts | 93° |
| 2026-04-27 17:08 | 13.13600 | 80.39819 | 1791 ft | 180 kts | 125° |
| 2026-04-27 17:08 | 13.12746 | 80.40673 | 1792 ft | 169 kts | 156° |
| 2026-04-27 17:08 | 13.11655 | 80.40920 | 1777 ft | 152 kts | 182° |
| 2026-04-27 17:09 | 13.10747 | 80.40539 | 1767 ft | 136 kts | 208° |
| 2026-04-27 17:09 | 13.09977 | 80.40003 | 1782 ft | 132 kts | 208° |
| 2026-04-27 17:09 | 13.09224 | 80.39483 | 1797 ft | 132 kts | 208° |
| 2026-04-27 17:09 | 13.08446 | 80.38961 | 1800 ft | 132 kts | 207° |
| 2026-04-27 17:10 | 13.07669 | 80.38452 | 1802 ft | 132 kts | 207° |
| 2026-04-27 17:10 | 13.06958 | 80.37840 | 1795 ft | 137 kts | 226° |
| 2026-04-27 17:10 | 13.06521 | 80.36962 | 1805 ft | 139 kts | 240° |
| 2026-04-27 17:10 | 13.06186 | 80.36066 | 1807 ft | 133 kts | 241° |
| 2026-04-27 17:11 | 13.05859 | 80.35174 | 1809 ft | 132 kts | 241° |
| 2026-04-27 17:11 | 13.05208 | 80.33424 | 1814 ft | 132 kts | 240° |
| 2026-04-27 17:11 | 13.04876 | 80.32532 | 1812 ft | 132 kts | 240° |
| 2026-04-27 17:12 | 13.04216 | 80.30766 | 1798 ft | 133 kts | 239° |
| 2026-04-27 17:12 | 13.03883 | 80.29880 | 1801 ft | 133 kts | 240° |
| 2026-04-27 17:12 | 13.03553 | 80.28996 | 1812 ft | 132 kts | 241° |
| 2026-04-27 17:13 | 13.03223 | 80.28116 | 1815 ft | 132 kts | 242° |
| 2026-04-27 17:13 | 13.02892 | 80.27232 | 1814 ft | 133 kts | 241° |
| 2026-04-27 17:13 | 13.02561 | 80.26349 | 1771 ft | 133 kts | 240° |
| 2026-04-27 17:13 | 13.02286 | 80.25433 | 1583 ft | 135 kts | 246° |
| 2026-04-27 17:14 | 13.02053 | 80.24511 | 1370 ft | 130 kts | 239° |
| 2026-04-27 17:14 | 13.01700 | 80.23667 | 1179 ft | 129 kts | 238° |
| 2026-04-27 17:14 | 13.01334 | 80.22824 | 991 ft | 130 kts | 241° |
| 2026-04-27 17:14 | 13.00978 | 80.21965 | 789 ft | 130 kts | 242° |
| 2026-04-27 17:15 | 13.00635 | 80.21110 | 644 ft | 130 kts | 241° |
| 2026-04-27 17:15 | 13.00298 | 80.20250 | 475 ft | 128 kts | 243° |
| 2026-04-27 17:15 | 12.99968 | 80.19410 | 312 ft | 127 kts | 248° |
| 2026-04-27 17:15 | 12.99623 | 80.18513 | 213 ft | 142 kts | 246° |
| 2026-04-27 17:16 | 12.99282 | 80.17589 | 60 ft | 134 kts | 245° |
| 2026-04-27 17:16 | 12.99017 | 80.16897 | 51 ft | 64 kts | 251° |
| 2026-04-27 17:16 | 12.98956 | 80.16733 | 55 ft | 6 kts | 249° |
| 2026-04-27 17:16 | 12.98916 | 80.16626 | 54 ft | 23 kts | 249° |
| 2026-04-27 17:17 | 12.98849 | 80.16472 | 51 ft | 25 kts | 237° |
| 2026-04-27 17:17 | 12.98721 | 80.16337 | 54 ft | 22 kts | 215° |
| 2026-04-27 17:17 | 12.98709 | 80.16328 | 53 ft | 0 kts | 215° |
| 2026-04-27 17:18 | 12.98689 | 80.16314 | 51 ft | 5 kts | 215° |
| 2026-04-27 17:18 | 12.98649 | 80.16285 | 54 ft | 9 kts | 215° |
| 2026-04-27 17:18 | 12.98592 | 80.16240 | 50 ft | 13 kts | 218° |
| 2026-04-27 17:18 | 12.98541 | 80.16163 | 52 ft | 14 kts | 243° |
| 2026-04-27 17:19 | 12.98502 | 80.16132 | 54 ft | 6 kts | 189° |
| 2026-04-27 17:19 | 12.98447 | 80.16151 | 54 ft | 8 kts | 157° |
| 2026-04-27 17:19 | 12.98410 | 80.16165 | 52 ft | 9 kts | 164° |
| 2026-04-27 17:19 | 12.98403 | 80.16167 | 52 ft | 0 kts | 163° |
| 2026-04-27 17:20 | 12.98392 | 80.16168 | 51 ft | 3 kts | 173° |
| 2026-04-27 17:20 | 12.98362 | 80.16165 | 52 ft | 5 kts | 184° |
| 2026-04-27 17:20 | 12.98328 | 80.16171 | 51 ft | 2 kts | 164° |
| 2026-04-27 17:20 | 12.98318 | 80.16174 | 53 ft | 3 kts | 163° |
| 2026-04-27 17:21 | 12.98304 | 80.16179 | 51 ft | 0 kts | 162° |